sensor_id;sensor_type;location;lat;lon;timestamp;temperature;humidity
16437;DHT22;8328;52.206;21.006;2023-05-02T00:00:35;10.40;48.00
16437;DHT22;8328;52.206;21.006;2023-05-02T00:03:03;10.40;48.40
16437;DHT22;8328;52.206;21.006;2023-05-02T00:05:29;10.40;48.60
16437;DHT22;8328;52.206;21.006;2023-05-02T00:07:55;10.40;49.00
16437;DHT22;8328;52.206;21.006;2023-05-02T00:10:21;10.40;49.40
16437;DHT22;8328;52.206;21.006;2023-05-02T00:12:46;10.40;49.70
16437;DHT22;8328;52.206;21.006;2023-05-02T00:15:12;10.40;50.10
16437;DHT22;8328;52.206;21.006;2023-05-02T00:17:41;10.30;50.40
16437;DHT22;8328;52.206;21.006;2023-05-02T00:20:11;10.30;50.50
16437;DHT22;8328;52.206;21.006;2023-05-02T00:22:37;10.40;50.90
16437;DHT22;8328;52.206;21.006;2023-05-02T00:25:03;10.40;51.00
16437;DHT22;8328;52.206;21.006;2023-05-02T00:27:30;10.40;51.10
16437;DHT22;8328;52.206;21.006;2023-05-02T00:29:59;10.40;51.50
16437;DHT22;8328;52.206;21.006;2023-05-02T00:32:26;10.40;51.80
16437;DHT22;8328;52.206;21.006;2023-05-02T00:34:52;10.40;52.00
16437;DHT22;8328;52.206;21.006;2023-05-02T00:37:18;10.40;52.20
16437;DHT22;8328;52.206;21.006;2023-05-02T00:39:44;10.40;52.40
16437;DHT22;8328;52.206;21.006;2023-05-02T00:42:10;10.40;52.40
16437;DHT22;8328;52.206;21.006;2023-05-02T00:44:36;10.40;52.30
16437;DHT22;8328;52.206;21.006;2023-05-02T00:47:02;10.50;52.60
16437;DHT22;8328;52.206;21.006;2023-05-02T00:49:28;10.40;52.80
16437;DHT22;8328;52.206;21.006;2023-05-02T00:51:55;10.40;52.80
16437;DHT22;8328;52.206;21.006;2023-05-02T00:54:21;10.40;52.90
16437;DHT22;8328;52.206;21.006;2023-05-02T00:56:46;10.40;53.10
16437;DHT22;8328;52.206;21.006;2023-05-02T00:59:13;10.40;53.50
16437;DHT22;8328;52.206;21.006;2023-05-02T01:04:16;10.40;53.60
16437;DHT22;8328;52.206;21.006;2023-05-02T01:06:54;10.40;53.90
16437;DHT22;8328;52.206;21.006;2023-05-02T01:09:51;10.40;54.10
16437;DHT22;8328;52.206;21.006;2023-05-02T01:12:42;10.30;54.00
16437;DHT22;8328;52.206;21.006;2023-05-02T01:15:15;10.40;54.20
16437;DHT22;8328;52.206;21.006;2023-05-02T01:17:43;10.40;54.50
16437;DHT22;8328;52.206;21.006;2023-05-02T01:20:16;10.40;54.30
16437;DHT22;8328;52.206;21.006;2023-05-02T01:22:45;10.40;54.60
16437;DHT22;8328;52.206;21.006;2023-05-02T01:30:58;10.50;54.60
16437;DHT22;8328;52.206;21.006;2023-05-02T01:33:26;10.50;54.30
16437;DHT22;8328;52.206;21.006;2023-05-02T01:35:53;10.40;54.60
16437;DHT22;8328;52.206;21.006;2023-05-02T01:38:21;10.50;54.80
16437;DHT22;8328;52.206;21.006;2023-05-02T01:40:49;10.50;55.00
16437;DHT22;8328;52.206;21.006;2023-05-02T01:43:17;10.50;54.80
16437;DHT22;8328;52.206;21.006;2023-05-02T01:45:44;10.50;54.70
16437;DHT22;8328;52.206;21.006;2023-05-02T01:48:12;10.50;54.80
16437;DHT22;8328;52.206;21.006;2023-05-02T01:50:40;10.50;55.00
16437;DHT22;8328;52.206;21.006;2023-05-02T01:53:09;10.50;55.20
16437;DHT22;8328;52.206;21.006;2023-05-02T01:55:40;10.40;55.30
16437;DHT22;8328;52.206;21.006;2023-05-02T01:58:08;10.40;55.50
16437;DHT22;8328;52.206;21.006;2023-05-02T02:00:36;10.40;55.70
16437;DHT22;8328;52.206;21.006;2023-05-02T02:03:04;10.40;55.70
16437;DHT22;8328;52.206;21.006;2023-05-02T02:05:35;10.40;56.00
16437;DHT22;8328;52.206;21.006;2023-05-02T02:08:02;10.40;56.20
16437;DHT22;8328;52.206;21.006;2023-05-02T02:10:32;10.40;56.40
16437;DHT22;8328;52.206;21.006;2023-05-02T02:13:12;10.30;56.60
16437;DHT22;8328;52.206;21.006;2023-05-02T02:15:46;10.30;56.70
16437;DHT22;8328;52.206;21.006;2023-05-02T02:18:19;10.20;56.90
16437;DHT22;8328;52.206;21.006;2023-05-02T02:20:46;10.20;57.30
16437;DHT22;8328;52.206;21.006;2023-05-02T02:23:14;10.20;57.60
16437;DHT22;8328;52.206;21.006;2023-05-02T02:25:41;10.10;57.80
16437;DHT22;8328;52.206;21.006;2023-05-02T02:28:08;10.10;58.30
16437;DHT22;8328;52.206;21.006;2023-05-02T02:30:33;10.10;58.60
16437;DHT22;8328;52.206;21.006;2023-05-02T02:32:59;10.10;58.90
16437;DHT22;8328;52.206;21.006;2023-05-02T02:35:30;10.10;60.20
16437;DHT22;8328;52.206;21.006;2023-05-02T02:40:54;10.00;60.20
16437;DHT22;8328;52.206;21.006;2023-05-02T02:43:34;10.00;60.50
16437;DHT22;8328;52.206;21.006;2023-05-02T02:46:23;10.00;61.20
16437;DHT22;8328;52.206;21.006;2023-05-02T02:51:31;10.00;62.40
16437;DHT22;8328;52.206;21.006;2023-05-02T02:57:32;10.00;63.10
16437;DHT22;8328;52.206;21.006;2023-05-02T03:00:17;10.00;63.60
16437;DHT22;8328;52.206;21.006;2023-05-02T03:02:45;10.00;64.10
16437;DHT22;8328;52.206;21.006;2023-05-02T03:05:12;10.00;64.00
16437;DHT22;8328;52.206;21.006;2023-05-02T03:07:39;10.00;64.50
16437;DHT22;8328;52.206;21.006;2023-05-02T03:10:05;9.90;66.30
16437;DHT22;8328;52.206;21.006;2023-05-02T03:12:31;9.90;66.80
16437;DHT22;8328;52.206;21.006;2023-05-02T03:18:05;10.00;66.50
16437;DHT22;8328;52.206;21.006;2023-05-02T03:20:31;10.00;66.70
16437;DHT22;8328;52.206;21.006;2023-05-02T03:22:56;9.90;67.90
16437;DHT22;8328;52.206;21.006;2023-05-02T03:25:22;9.90;68.50
16437;DHT22;8328;52.206;21.006;2023-05-02T03:27:48;9.90;69.40
16437;DHT22;8328;52.206;21.006;2023-05-02T03:30:14;9.90;70.50
16437;DHT22;8328;52.206;21.006;2023-05-02T03:32:40;10.00;69.50
16437;DHT22;8328;52.206;21.006;2023-05-02T03:35:06;10.00;69.80
16437;DHT22;8328;52.206;21.006;2023-05-02T03:37:33;10.10;69.80
16437;DHT22;8328;52.206;21.006;2023-05-02T03:39:59;10.10;69.70
16437;DHT22;8328;52.206;21.006;2023-05-02T03:42:24;10.20;70.00
16437;DHT22;8328;52.206;21.006;2023-05-02T03:44:53;10.30;68.90
16437;DHT22;8328;52.206;21.006;2023-05-02T03:47:19;10.30;68.80
16437;DHT22;8328;52.206;21.006;2023-05-02T03:49:45;10.30;68.40
16437;DHT22;8328;52.206;21.006;2023-05-02T03:52:11;10.40;68.40
16437;DHT22;8328;52.206;21.006;2023-05-02T03:54:37;10.40;68.10
16437;DHT22;8328;52.206;21.006;2023-05-02T03:57:03;10.50;68.20
16437;DHT22;8328;52.206;21.006;2023-05-02T03:59:33;10.60;67.90
16437;DHT22;8328;52.206;21.006;2023-05-02T04:01:59;10.60;67.30
16437;DHT22;8328;52.206;21.006;2023-05-02T04:04:25;10.70;68.30
16437;DHT22;8328;52.206;21.006;2023-05-02T04:06:51;10.70;67.30
16437;DHT22;8328;52.206;21.006;2023-05-02T04:09:16;10.80;67.10
16437;DHT22;8328;52.206;21.006;2023-05-02T04:11:43;10.90;67.20
16437;DHT22;8328;52.206;21.006;2023-05-02T04:14:09;11.00;66.10
16437;DHT22;8328;52.206;21.006;2023-05-02T04:16:35;11.10;65.80
16437;DHT22;8328;52.206;21.006;2023-05-02T04:19:01;11.10;65.70
16437;DHT22;8328;52.206;21.006;2023-05-02T04:21:26;11.10;65.30
16437;DHT22;8328;52.206;21.006;2023-05-02T04:23:52;11.10;64.90
16437;DHT22;8328;52.206;21.006;2023-05-02T04:26:18;11.20;64.50
16437;DHT22;8328;52.206;21.006;2023-05-02T04:28:43;11.40;64.50
16437;DHT22;8328;52.206;21.006;2023-05-02T04:31:09;11.40;63.90
16437;DHT22;8328;52.206;21.006;2023-05-02T04:33:35;11.50;63.50
16437;DHT22;8328;52.206;21.006;2023-05-02T04:36:01;11.50;63.40
16437;DHT22;8328;52.206;21.006;2023-05-02T04:38:27;11.50;62.90
16437;DHT22;8328;52.206;21.006;2023-05-02T04:40:53;11.50;63.30
16437;DHT22;8328;52.206;21.006;2023-05-02T04:43:19;11.50;63.50
16437;DHT22;8328;52.206;21.006;2023-05-02T04:45:44;11.50;62.90
16437;DHT22;8328;52.206;21.006;2023-05-02T04:48:10;11.50;63.50
16437;DHT22;8328;52.206;21.006;2023-05-02T04:50:36;11.50;63.40
16437;DHT22;8328;52.206;21.006;2023-05-02T04:53:02;11.50;63.40
16437;DHT22;8328;52.206;21.006;2023-05-02T04:55:28;11.50;63.80
16437;DHT22;8328;52.206;21.006;2023-05-02T04:57:54;11.60;63.70
16437;DHT22;8328;52.206;21.006;2023-05-02T05:00:20;11.60;63.80
16437;DHT22;8328;52.206;21.006;2023-05-02T05:02:46;11.60;64.00
16437;DHT22;8328;52.206;21.006;2023-05-02T05:05:12;11.70;64.20
16437;DHT22;8328;52.206;21.006;2023-05-02T05:07:37;11.80;63.10
16437;DHT22;8328;52.206;21.006;2023-05-02T05:10:04;11.90;63.40
16437;DHT22;8328;52.206;21.006;2023-05-02T05:12:29;12.20;63.70
16437;DHT22;8328;52.206;21.006;2023-05-02T05:14:55;12.40;63.00
16437;DHT22;8328;52.206;21.006;2023-05-02T05:17:21;12.70;62.70
16437;DHT22;8328;52.206;21.006;2023-05-02T05:19:47;13.00;59.90
16437;DHT22;8328;52.206;21.006;2023-05-02T05:22:13;13.40;58.10
16437;DHT22;8328;52.206;21.006;2023-05-02T05:24:38;13.60;57.20
16437;DHT22;8328;52.206;21.006;2023-05-02T05:27:04;13.70;56.50
16437;DHT22;8328;52.206;21.006;2023-05-02T05:29:30;14.00;56.50
16437;DHT22;8328;52.206;21.006;2023-05-02T05:31:57;14.40;56.20
16437;DHT22;8328;52.206;21.006;2023-05-02T05:34:23;14.80;55.70
16437;DHT22;8328;52.206;21.006;2023-05-02T05:36:49;15.10;53.50
16437;DHT22;8328;52.206;21.006;2023-05-02T05:39:15;15.20;53.20
16437;DHT22;8328;52.206;21.006;2023-05-02T05:41:41;15.50;51.10
16437;DHT22;8328;52.206;21.006;2023-05-02T05:44:07;15.70;51.60
16437;DHT22;8328;52.206;21.006;2023-05-02T05:46:33;16.20;50.80
16437;DHT22;8328;52.206;21.006;2023-05-02T05:48:59;16.40;48.80
16437;DHT22;8328;52.206;21.006;2023-05-02T05:51:25;16.80;47.80
16437;DHT22;8328;52.206;21.006;2023-05-02T05:53:52;17.20;46.70
16437;DHT22;8328;52.206;21.006;2023-05-02T05:56:18;17.30;45.40
16437;DHT22;8328;52.206;21.006;2023-05-02T05:58:44;17.10;45.10
16437;DHT22;8328;52.206;21.006;2023-05-02T06:01:10;17.10;45.50
16437;DHT22;8328;52.206;21.006;2023-05-02T06:03:36;17.00;46.10
16437;DHT22;8328;52.206;21.006;2023-05-02T06:06:01;17.10;46.00
16437;DHT22;8328;52.206;21.006;2023-05-02T06:08:27;17.30;45.70
16437;DHT22;8328;52.206;21.006;2023-05-02T06:10:53;17.80;44.90
16437;DHT22;8328;52.206;21.006;2023-05-02T06:13:19;17.90;44.50
16437;DHT22;8328;52.206;21.006;2023-05-02T06:15:44;18.00;43.90
16437;DHT22;8328;52.206;21.006;2023-05-02T06:18:10;18.40;44.20
16437;DHT22;8328;52.206;21.006;2023-05-02T06:20:36;18.70;43.00
16437;DHT22;8328;52.206;21.006;2023-05-02T06:23:01;19.30;42.60
16437;DHT22;8328;52.206;21.006;2023-05-02T06:25:27;19.50;41.00
16437;DHT22;8328;52.206;21.006;2023-05-02T06:27:53;19.40;40.70
16437;DHT22;8328;52.206;21.006;2023-05-02T06:30:19;19.20;40.30
16437;DHT22;8328;52.206;21.006;2023-05-02T06:32:45;19.20;41.10
16437;DHT22;8328;52.206;21.006;2023-05-02T06:35:11;18.90;40.80
16437;DHT22;8328;52.206;21.006;2023-05-02T06:37:37;18.60;41.50
16437;DHT22;8328;52.206;21.006;2023-05-02T06:40:03;18.50;42.40
16437;DHT22;8328;52.206;21.006;2023-05-02T06:42:29;18.50;42.80
16437;DHT22;8328;52.206;21.006;2023-05-02T06:44:55;18.50;43.10
16437;DHT22;8328;52.206;21.006;2023-05-02T06:47:21;18.60;43.30
16437;DHT22;8328;52.206;21.006;2023-05-02T06:49:50;18.70;42.90
16437;DHT22;8328;52.206;21.006;2023-05-02T06:52:16;18.70;43.30
16437;DHT22;8328;52.206;21.006;2023-05-02T06:54:41;18.80;43.80
16437;DHT22;8328;52.206;21.006;2023-05-02T06:57:07;18.50;43.90
16437;DHT22;8328;52.206;21.006;2023-05-02T06:59:33;18.90;44.00
16437;DHT22;8328;52.206;21.006;2023-05-02T07:01:59;19.00;44.10
16437;DHT22;8328;52.206;21.006;2023-05-02T07:04:25;19.20;44.00
16437;DHT22;8328;52.206;21.006;2023-05-02T07:06:51;19.40;43.70
16437;DHT22;8328;52.206;21.006;2023-05-02T07:09:17;19.50;43.70
16437;DHT22;8328;52.206;21.006;2023-05-02T07:11:42;19.60;43.80
16437;DHT22;8328;52.206;21.006;2023-05-02T07:14:08;19.70;43.60
16437;DHT22;8328;52.206;21.006;2023-05-02T07:16:34;19.80;43.90
16437;DHT22;8328;52.206;21.006;2023-05-02T07:19:00;19.90;42.90
16437;DHT22;8328;52.206;21.006;2023-05-02T07:21:29;20.00;42.40
16437;DHT22;8328;52.206;21.006;2023-05-02T07:23:54;20.00;42.60
16437;DHT22;8328;52.206;21.006;2023-05-02T07:26:22;20.00;42.40
16437;DHT22;8328;52.206;21.006;2023-05-02T07:28:47;20.10;41.90
16437;DHT22;8328;52.206;21.006;2023-05-02T07:31:13;20.20;41.30
16437;DHT22;8328;52.206;21.006;2023-05-02T07:33:39;20.30;41.40
16437;DHT22;8328;52.206;21.006;2023-05-02T07:36:05;20.50;39.70
16437;DHT22;8328;52.206;21.006;2023-05-02T07:38:31;20.60;38.70
16437;DHT22;8328;52.206;21.006;2023-05-02T07:40:57;20.70;37.20
16437;DHT22;8328;52.206;21.006;2023-05-02T07:43:23;20.70;36.80
16437;DHT22;8328;52.206;21.006;2023-05-02T07:45:49;20.90;36.50
16437;DHT22;8328;52.206;21.006;2023-05-02T07:48:15;21.10;36.20
16437;DHT22;8328;52.206;21.006;2023-05-02T07:50:40;21.10;35.20
16437;DHT22;8328;52.206;21.006;2023-05-02T07:53:06;21.00;35.60
16437;DHT22;8328;52.206;21.006;2023-05-02T07:55:32;21.10;35.70
16437;DHT22;8328;52.206;21.006;2023-05-02T07:57:58;21.10;35.90
16437;DHT22;8328;52.206;21.006;2023-05-02T08:00:25;21.30;36.00
16437;DHT22;8328;52.206;21.006;2023-05-02T08:02:50;21.30;36.00
16437;DHT22;8328;52.206;21.006;2023-05-02T08:05:16;21.30;35.50
16437;DHT22;8328;52.206;21.006;2023-05-02T08:07:42;21.40;36.00
16437;DHT22;8328;52.206;21.006;2023-05-02T08:10:08;21.40;35.50
16437;DHT22;8328;52.206;21.006;2023-05-02T08:12:41;21.30;35.80
16437;DHT22;8328;52.206;21.006;2023-05-02T08:15:08;21.30;35.80
16437;DHT22;8328;52.206;21.006;2023-05-02T08:17:34;21.40;35.80
16437;DHT22;8328;52.206;21.006;2023-05-02T08:20:00;21.50;36.20
16437;DHT22;8328;52.206;21.006;2023-05-02T08:22:26;21.70;35.30
16437;DHT22;8328;52.206;21.006;2023-05-02T08:24:52;21.80;35.70
16437;DHT22;8328;52.206;21.006;2023-05-02T08:27:17;21.90;35.70
16437;DHT22;8328;52.206;21.006;2023-05-02T08:29:43;22.00;35.50
16437;DHT22;8328;52.206;21.006;2023-05-02T08:32:09;22.00;34.70
16437;DHT22;8328;52.206;21.006;2023-05-02T08:34:35;22.00;34.40
16437;DHT22;8328;52.206;21.006;2023-05-02T08:37:01;21.90;34.80
16437;DHT22;8328;52.206;21.006;2023-05-02T08:39:26;21.90;35.10
16437;DHT22;8328;52.206;21.006;2023-05-02T08:41:52;22.10;34.90
16437;DHT22;8328;52.206;21.006;2023-05-02T08:44:18;22.20;34.60
16437;DHT22;8328;52.206;21.006;2023-05-02T08:46:44;22.30;34.70
16437;DHT22;8328;52.206;21.006;2023-05-02T08:49:10;22.30;34.90
16437;DHT22;8328;52.206;21.006;2023-05-02T08:51:36;22.30;34.70
16437;DHT22;8328;52.206;21.006;2023-05-02T08:54:03;22.40;34.80
16437;DHT22;8328;52.206;21.006;2023-05-02T08:56:31;22.50;34.50
16437;DHT22;8328;52.206;21.006;2023-05-02T08:58:57;22.60;34.20
16437;DHT22;8328;52.206;21.006;2023-05-02T09:01:29;22.90;33.70
16437;DHT22;8328;52.206;21.006;2023-05-02T09:03:56;23.60;34.00
16437;DHT22;8328;52.206;21.006;2023-05-02T09:06:25;24.20;31.80
16437;DHT22;8328;52.206;21.006;2023-05-02T09:08:51;24.20;30.70
16437;DHT22;8328;52.206;21.006;2023-05-02T09:11:18;24.40;31.10
16437;DHT22;8328;52.206;21.006;2023-05-02T09:13:49;24.40;30.40
16437;DHT22;8328;52.206;21.006;2023-05-02T09:16:18;24.50;31.00
16437;DHT22;8328;52.206;21.006;2023-05-02T09:18:48;25.00;29.70
16437;DHT22;8328;52.206;21.006;2023-05-02T09:21:16;25.40;29.00
16437;DHT22;8328;52.206;21.006;2023-05-02T09:23:44;26.10;28.40
16437;DHT22;8328;52.206;21.006;2023-05-02T09:26:21;26.60;27.20
16437;DHT22;8328;52.206;21.006;2023-05-02T09:28:49;26.90;26.70
16437;DHT22;8328;52.206;21.006;2023-05-02T09:31:20;27.10;26.30
16437;DHT22;8328;52.206;21.006;2023-05-02T09:33:47;26.90;25.60
16437;DHT22;8328;52.206;21.006;2023-05-02T09:36:15;26.70;25.60
16437;DHT22;8328;52.206;21.006;2023-05-02T09:38:42;26.30;25.80
16437;DHT22;8328;52.206;21.006;2023-05-02T09:41:09;26.20;26.20
16437;DHT22;8328;52.206;21.006;2023-05-02T09:43:35;26.10;26.40
16437;DHT22;8328;52.206;21.006;2023-05-02T09:46:06;26.00;26.80
16437;DHT22;8328;52.206;21.006;2023-05-02T09:48:56;26.10;26.50
16437;DHT22;8328;52.206;21.006;2023-05-02T09:51:23;25.70;27.30
16437;DHT22;8328;52.206;21.006;2023-05-02T09:53:50;26.00;27.20
16437;DHT22;8328;52.206;21.006;2023-05-02T09:56:17;26.30;26.60
16437;DHT22;8328;52.206;21.006;2023-05-02T09:58:43;26.10;26.00
16437;DHT22;8328;52.206;21.006;2023-05-02T10:01:15;25.90;27.10
16437;DHT22;8328;52.206;21.006;2023-05-02T10:03:46;27.40;27.70
16437;DHT22;8328;52.206;21.006;2023-05-02T10:06:12;25.70;27.00
16437;DHT22;8328;52.206;21.006;2023-05-02T10:08:40;25.60;27.10
16437;DHT22;8328;52.206;21.006;2023-05-02T10:11:07;25.90;27.10
16437;DHT22;8328;52.206;21.006;2023-05-02T10:13:34;26.30;27.20
16437;DHT22;8328;52.206;21.006;2023-05-02T10:16:05;26.80;26.50
16437;DHT22;8328;52.206;21.006;2023-05-02T10:19:02;26.60;25.70
16437;DHT22;8328;52.206;21.006;2023-05-02T10:21:31;26.00;27.00
16437;DHT22;8328;52.206;21.006;2023-05-02T10:24:00;25.60;27.40
16437;DHT22;8328;52.206;21.006;2023-05-02T10:26:28;24.90;28.10
16437;DHT22;8328;52.206;21.006;2023-05-02T10:28:55;24.40;29.20
16437;DHT22;8328;52.206;21.006;2023-05-02T10:31:21;24.10;30.50
16437;DHT22;8328;52.206;21.006;2023-05-02T10:33:50;23.50;32.00
16437;DHT22;8328;52.206;21.006;2023-05-02T10:36:20;23.20;33.40
16437;DHT22;8328;52.206;21.006;2023-05-02T10:38:47;23.00;34.50
16437;DHT22;8328;52.206;21.006;2023-05-02T10:41:25;23.10;34.50
16437;DHT22;8328;52.206;21.006;2023-05-02T10:43:52;23.20;35.20
16437;DHT22;8328;52.206;21.006;2023-05-02T10:46:39;23.10;35.40
16437;DHT22;8328;52.206;21.006;2023-05-02T10:49:11;22.60;35.90
16437;DHT22;8328;52.206;21.006;2023-05-02T10:51:41;21.90;37.60
16437;DHT22;8328;52.206;21.006;2023-05-02T10:59:40;20.90;41.40
16437;DHT22;8328;52.206;21.006;2023-05-02T11:05:02;20.30;43.10
16437;DHT22;8328;52.206;21.006;2023-05-02T11:07:32;20.40;43.40
16437;DHT22;8328;52.206;21.006;2023-05-02T11:12:47;19.50;45.30
16437;DHT22;8328;52.206;21.006;2023-05-02T11:18:07;18.50;47.40
16437;DHT22;8328;52.206;21.006;2023-05-02T11:20:43;17.70;54.40
16437;DHT22;8328;52.206;21.006;2023-05-02T11:25:49;16.10;93.60
16437;DHT22;8328;52.206;21.006;2023-05-02T11:34:01;15.90;99.90
16437;DHT22;8328;52.206;21.006;2023-05-02T11:36:31;16.10;99.90
16437;DHT22;8328;52.206;21.006;2023-05-02T11:38:59;16.40;99.90
16437;DHT22;8328;52.206;21.006;2023-05-02T11:41:38;17.30;99.90
16437;DHT22;8328;52.206;21.006;2023-05-02T11:44:04;17.90;99.90
16437;DHT22;8328;52.206;21.006;2023-05-02T11:46:30;18.50;99.90
16437;DHT22;8328;52.206;21.006;2023-05-02T11:48:56;19.20;99.90
16437;DHT22;8328;52.206;21.006;2023-05-02T11:51:22;19.80;98.30
16437;DHT22;8328;52.206;21.006;2023-05-02T11:53:47;20.40;95.50
16437;DHT22;8328;52.206;21.006;2023-05-02T11:56:14;20.50;93.70
16437;DHT22;8328;52.206;21.006;2023-05-02T11:58:40;20.30;92.90
16437;DHT22;8328;52.206;21.006;2023-05-02T12:01:15;20.30;93.20
16437;DHT22;8328;52.206;21.006;2023-05-02T12:03:41;20.10;90.50
16437;DHT22;8328;52.206;21.006;2023-05-02T12:06:12;20.20;90.40
16437;DHT22;8328;52.206;21.006;2023-05-02T12:08:39;19.40;86.40
16437;DHT22;8328;52.206;21.006;2023-05-02T12:11:05;20.20;86.30
16437;DHT22;8328;52.206;21.006;2023-05-02T12:13:31;20.30;85.00
16437;DHT22;8328;52.206;21.006;2023-05-02T12:15:57;20.70;83.00
16437;DHT22;8328;52.206;21.006;2023-05-02T12:18:24;21.00;80.40
16437;DHT22;8328;52.206;21.006;2023-05-02T12:20:52;21.80;77.60
16437;DHT22;8328;52.206;21.006;2023-05-02T12:23:19;23.40;72.30
16437;DHT22;8328;52.206;21.006;2023-05-02T12:25:46;24.80;61.30
16437;DHT22;8328;52.206;21.006;2023-05-02T12:28:11;25.20;55.20
16437;DHT22;8328;52.206;21.006;2023-05-02T12:30:38;25.90;53.20
16437;DHT22;8328;52.206;21.006;2023-05-02T12:33:07;27.10;47.50
16437;DHT22;8328;52.206;21.006;2023-05-02T12:35:33;27.70;43.20
16437;DHT22;8328;52.206;21.006;2023-05-02T12:38:16;28.00;41.20
16437;DHT22;8328;52.206;21.006;2023-05-02T12:40:50;27.70;38.80
16437;DHT22;8328;52.206;21.006;2023-05-02T12:43:17;27.40;36.90
16437;DHT22;8328;52.206;21.006;2023-05-02T12:45:46;27.20;38.20
16437;DHT22;8328;52.206;21.006;2023-05-02T12:48:26;27.30;37.80
16437;DHT22;8328;52.206;21.006;2023-05-02T12:50:53;27.20;38.00
16437;DHT22;8328;52.206;21.006;2023-05-02T12:53:41;26.60;38.20
16437;DHT22;8328;52.206;21.006;2023-05-02T12:56:09;26.70;32.80
16437;DHT22;8328;52.206;21.006;2023-05-02T13:01:07;24.50;34.00
16437;DHT22;8328;52.206;21.006;2023-05-02T13:03:33;23.20;36.30
16437;DHT22;8328;52.206;21.006;2023-05-02T13:06:00;22.40;38.70
16437;DHT22;8328;52.206;21.006;2023-05-02T13:08:25;21.50;40.50
16437;DHT22;8328;52.206;21.006;2023-05-02T13:10:51;21.20;42.10
16437;DHT22;8328;52.206;21.006;2023-05-02T13:13:17;20.90;43.60
16437;DHT22;8328;52.206;21.006;2023-05-02T13:15:43;20.90;44.90
16437;DHT22;8328;52.206;21.006;2023-05-02T13:18:09;20.90;46.00
16437;DHT22;8328;52.206;21.006;2023-05-02T13:20:35;21.30;46.20
16437;DHT22;8328;52.206;21.006;2023-05-02T13:23:00;21.40;44.60
16437;DHT22;8328;52.206;21.006;2023-05-02T13:25:26;21.50;44.80
16437;DHT22;8328;52.206;21.006;2023-05-02T13:27:52;21.80;43.90
16437;DHT22;8328;52.206;21.006;2023-05-02T13:30:18;22.20;41.50
16437;DHT22;8328;52.206;21.006;2023-05-02T13:32:43;22.60;40.20
16437;DHT22;8328;52.206;21.006;2023-05-02T13:35:09;23.60;37.90
16437;DHT22;8328;52.206;21.006;2023-05-02T13:37:38;24.00;37.30
16437;DHT22;8328;52.206;21.006;2023-05-02T13:40:05;24.30;36.50
16437;DHT22;8328;52.206;21.006;2023-05-02T13:42:31;24.20;35.60
16437;DHT22;8328;52.206;21.006;2023-05-02T13:44:57;24.30;34.80
16437;DHT22;8328;52.206;21.006;2023-05-02T13:47:26;27.00;32.50
16437;DHT22;8328;52.206;21.006;2023-05-02T13:49:52;26.60;30.40
16437;DHT22;8328;52.206;21.006;2023-05-02T13:52:17;25.60;29.30
16437;DHT22;8328;52.206;21.006;2023-05-02T13:54:43;24.60;30.60
16437;DHT22;8328;52.206;21.006;2023-05-02T13:57:09;24.30;31.00
16437;DHT22;8328;52.206;21.006;2023-05-02T13:59:35;24.40;31.50
16437;DHT22;8328;52.206;21.006;2023-05-02T14:02:00;24.70;31.60
16437;DHT22;8328;52.206;21.006;2023-05-02T14:04:26;24.80;30.90
16437;DHT22;8328;52.206;21.006;2023-05-02T14:07:02;24.50;30.30
16437;DHT22;8328;52.206;21.006;2023-05-02T14:09:28;24.30;31.30
16437;DHT22;8328;52.206;21.006;2023-05-02T14:11:55;24.40;31.90
16437;DHT22;8328;52.206;21.006;2023-05-02T14:14:23;24.60;31.50
16437;DHT22;8328;52.206;21.006;2023-05-02T14:16:49;24.60;31.60
16437;DHT22;8328;52.206;21.006;2023-05-02T14:19:15;24.50;31.30
16437;DHT22;8328;52.206;21.006;2023-05-02T14:21:40;24.80;31.80
16437;DHT22;8328;52.206;21.006;2023-05-02T14:24:06;25.10;30.50
16437;DHT22;8328;52.206;21.006;2023-05-02T14:26:32;25.20;30.00
16437;DHT22;8328;52.206;21.006;2023-05-02T14:28:58;25.10;30.30
16437;DHT22;8328;52.206;21.006;2023-05-02T14:31:25;25.20;30.00
16437;DHT22;8328;52.206;21.006;2023-05-02T14:33:52;24.90;29.80
16437;DHT22;8328;52.206;21.006;2023-05-02T14:36:18;24.30;30.70
16437;DHT22;8328;52.206;21.006;2023-05-02T14:38:44;24.00;31.90
16437;DHT22;8328;52.206;21.006;2023-05-02T14:41:10;23.80;32.50
16437;DHT22;8328;52.206;21.006;2023-05-02T14:43:36;23.40;32.90
16437;DHT22;8328;52.206;21.006;2023-05-02T14:46:04;22.90;33.30
16437;DHT22;8328;52.206;21.006;2023-05-02T14:48:29;22.30;33.90
16437;DHT22;8328;52.206;21.006;2023-05-02T14:50:55;21.70;34.00
16437;DHT22;8328;52.206;21.006;2023-05-02T14:53:23;21.30;35.00
16437;DHT22;8328;52.206;21.006;2023-05-02T14:55:49;21.10;35.80
16437;DHT22;8328;52.206;21.006;2023-05-02T14:58:14;21.00;36.40
16437;DHT22;8328;52.206;21.006;2023-05-02T15:00:45;20.80;36.40
16437;DHT22;8328;52.206;21.006;2023-05-02T15:03:11;20.70;36.70
16437;DHT22;8328;52.206;21.006;2023-05-02T15:05:37;20.50;37.40
16437;DHT22;8328;52.206;21.006;2023-05-02T15:08:03;20.40;37.30
16437;DHT22;8328;52.206;21.006;2023-05-02T15:10:29;20.40;38.00
16437;DHT22;8328;52.206;21.006;2023-05-02T15:12:55;20.20;38.60
16437;DHT22;8328;52.206;21.006;2023-05-02T15:15:21;20.30;38.90
16437;DHT22;8328;52.206;21.006;2023-05-02T15:17:50;20.30;38.40
16437;DHT22;8328;52.206;21.006;2023-05-02T15:20:16;20.20;38.10
16437;DHT22;8328;52.206;21.006;2023-05-02T15:22:42;20.00;38.50
16437;DHT22;8328;52.206;21.006;2023-05-02T15:25:08;20.00;38.50
16437;DHT22;8328;52.206;21.006;2023-05-02T15:27:35;19.90;37.10
16437;DHT22;8328;52.206;21.006;2023-05-02T15:30:00;19.80;36.80
16437;DHT22;8328;52.206;21.006;2023-05-02T15:32:27;19.80;36.90
16437;DHT22;8328;52.206;21.006;2023-05-02T15:34:53;19.60;37.00
16437;DHT22;8328;52.206;21.006;2023-05-02T15:37:19;19.60;37.30
16437;DHT22;8328;52.206;21.006;2023-05-02T15:39:45;19.70;37.50
16437;DHT22;8328;52.206;21.006;2023-05-02T15:42:11;19.60;37.30
16437;DHT22;8328;52.206;21.006;2023-05-02T15:44:37;19.50;37.80
16437;DHT22;8328;52.206;21.006;2023-05-02T15:47:04;19.40;38.20
16437;DHT22;8328;52.206;21.006;2023-05-02T15:49:29;19.30;38.30
16437;DHT22;8328;52.206;21.006;2023-05-02T15:52:01;19.30;38.60
16437;DHT22;8328;52.206;21.006;2023-05-02T15:54:27;19.40;38.70
16437;DHT22;8328;52.206;21.006;2023-05-02T15:56:53;19.40;38.70
16437;DHT22;8328;52.206;21.006;2023-05-02T15:59:29;19.40;38.80
16437;DHT22;8328;52.206;21.006;2023-05-02T16:01:55;19.40;39.20
16437;DHT22;8328;52.206;21.006;2023-05-02T16:04:20;20.30;39.90
16437;DHT22;8328;52.206;21.006;2023-05-02T16:06:46;19.60;39.20
16437;DHT22;8328;52.206;21.006;2023-05-02T16:09:12;19.70;39.40
16437;DHT22;8328;52.206;21.006;2023-05-02T16:11:38;19.70;39.50
16437;DHT22;8328;52.206;21.006;2023-05-02T16:14:04;19.70;39.50
16437;DHT22;8328;52.206;21.006;2023-05-02T16:16:29;19.80;40.00